• Join FlightAware (Why Join?)
  • Login
  • US Flag 
07:18PM EDT


 

Airport Tracker/Info


-or-


 

Live Flight TrackerFlight Track Log ✈ TRS886 ✈ 17-May-2013 ✈ KMCO - KSTL

Flight Track Log - Related Links

Times and Time Zones

All times are in EDT time to prevent confusion due to time zone crossing. See the TRS886 flight status page for this flight to view local times or setup timezone preferences in your user account.

Time Position Orientation Groundspeed Altitude Reporting Facility
EDT Latitude Longitude Course Direction KTS MPH feet Rate Location/Type
02:08PM 28.4167 -81.3167 204° Southwest 169 194 800  Level Orlando TRACON
02:09PM 28.3500 -81.3500 204° Southwest 270 311 3,000 2,040 Climbing Orlando TRACON
02:10PM 28.3167 -81.4000 233° Southwest 279 321 5,200 2,760 Climbing Orlando TRACON
02:11PM 28.3167 -81.5000 270° West 282 325 8,400 2,100 Climbing Orlando TRACON
02:13PM 28.3364 -81.7064 276° West 314 361 12,500 1,620 Climbing Jacksonville Center
02:14PM 28.3478 -81.8217 276° West 344 396 13,700 1,800 Climbing Jacksonville Center
02:15PM 28.3592 -81.9442 276° West 370 426 16,100 2,100 Climbing Jacksonville Center
02:16PM 28.3706 -82.0669 276° West 389 448 17,900 1,800 Climbing Jacksonville Center
02:17PM 28.3817 -82.1894 276° West 395 455 19,800 1,560 Climbing Jacksonville Center
02:18PM 28.3908 -82.3169 275° West 400 460 21,100 1,140 Climbing Jacksonville Center
02:19PM 28.3994 -82.4514 274° West 412 474 22,100 1,080 Climbing Jacksonville Center
02:20PM 28.4625 -82.5572 304° West 402 463 23,300 1,200 Climbing Jacksonville Center
02:21PM 28.5608 -82.6325 326° Northwest 395 455 24,500 1,080 Climbing Jacksonville Center
02:22PM 28.6611 -82.7128 325° Northwest 417 480 25,500 960 Climbing Jacksonville Center
02:23PM 28.7739 -82.7956 327° Northwest 429 494 26,500 900 Climbing Jacksonville Center
02:24PM 28.8825 -82.8736 328° Northwest 442 509 27,400 720 Climbing Jacksonville Center
02:25PM 28.9889 -82.9519 327° Northwest 453 521 28,000 600 Climbing Jacksonville Center
02:26PM 29.0975 -83.0281 329° Northwest 463 533 28,700 780 Climbing Jacksonville Center
02:27PM 29.2058 -83.1067 328° Northwest 463 533 29,600 900 Climbing Jacksonville Center
02:28PM 29.3100 -83.1831 327° Northwest 456 525 30,600 1,080 Climbing Jacksonville Center
02:29PM 29.4142 -83.2597 327° Northwest 451 519 31,800 660 Climbing Jacksonville Center
02:30PM 29.5164 -83.3342 328° Northwest 451 519 32,000 60 Climbing Jacksonville Center
02:31PM 29.6203 -83.4111 327° Northwest 440 506 32,000  Level Jacksonville Center
02:32PM 29.7222 -83.4833 328° Northwest 440 506 32,000  Level Jacksonville Center
02:33PM 29.8264 -83.5558 329° Northwest 440 506 32,000  Level Jacksonville Center
02:34PM 29.9261 -83.6331 326° Northwest 435 501 32,000  Level Jacksonville Center
02:35PM 30.0258 -83.7058 328° Northwest 435 501 32,000  Level Jacksonville Center
02:36PM 30.1297 -83.7811 328° Northwest 435 501 32,000  Level Jacksonville Center
02:37PM 30.2317 -83.8567 327° Northwest 435 501 32,000  Level Jacksonville Center
02:38PM 30.3333 -83.9322 327° Northwest 435 501 32,000  Level Jacksonville Center
02:39PM 30.4350 -84.0056 328° Northwest 435 501 32,000  Level Jacksonville Center
02:40PM 30.5367 -84.0817 327° Northwest 435 501 32,000  Level Jacksonville Center
02:41PM 30.6214 -84.1503 325° Northwest 430 495 32,000  Level Jacksonville Center
02:42PM 30.7253 -84.2242 329° Northwest 430 495 32,000  Level Jacksonville Center
02:43PM 30.8286 -84.3031 327° Northwest 435 501 32,000  Level Jacksonville Center
02:44PM 30.9322 -84.3819 327° Northwest 435 501 32,000  Level Jacksonville Center
02:45PM 31.0314 -84.4589 326° Northwest 435 501 32,000  Level Jacksonville Center
02:47PM 31.2069 -84.5925 327° Northwest 458 527 32,000  Level Atlanta Center
02:48PM 31.3108 -84.6708 327° Northwest 458 527 32,000  Level Atlanta Center
02:49PM 31.4147 -84.7494 327° Northwest 458 527 32,000  Level Atlanta Center
02:50PM 31.5228 -84.8331 327° Northwest 463 533 32,000  Level Atlanta Center
02:51PM 31.6308 -84.9119 328° Northwest 463 533 32,000  Level Atlanta Center
02:52PM 31.7344 -84.9961 325° Northwest 458 527 32,000  Level Atlanta Center
02:53PM 31.8403 -85.0778 327° Northwest 458 527 32,000  Level Atlanta Center
02:54PM 31.9586 -85.1625 329° Northwest 458 527 32,000  Level Atlanta Center
02:55PM 32.0642 -85.2422 327° Northwest 458 527 32,000  Level Atlanta Center
02:56PM 32.1700 -85.3269 326° Northwest 458 527 32,000  Level Atlanta Center
02:57PM 32.2733 -85.4097 326° Northwest 458 527 32,000  Level Atlanta Center
02:58PM 32.3808 -85.4925 327° Northwest 458 527 32,000  Level Atlanta Center
02:59PM 32.4761 -85.5653 327° Northwest 463 533 32,000  Level Atlanta Center
03:00PM 32.5836 -85.6511 326° Northwest 463 533 32,000  Level Atlanta Center
03:01PM 32.6889 -85.7319 327° Northwest 458 527 32,000  Level Atlanta Center
03:02PM 32.7942 -85.8181 325° Northwest 463 533 32,000  Level Atlanta Center
03:03PM 32.8994 -85.8992 327° Northwest 463 533 32,000  Level Atlanta Center
03:04PM 33.0025 -85.9808 326° Northwest 456 525 32,000  Level Atlanta Center
03:05PM 33.1075 -86.0650 326° Northwest 456 525 32,000  Level Atlanta Center
03:06PM 33.2083 -86.1517 324° Northwest 456 525 32,000  Level Atlanta Center
03:07PM 33.3133 -86.2361 326° Northwest 456 525 32,000 420 Level Atlanta Center
03:08PM 33.4164 -86.3161 327° Northwest 456 525 32,900 900 Climbing Atlanta Center
03:09PM 33.5192 -86.3983 326° Northwest 456 525 33,800 540 Climbing Atlanta Center
03:10PM 33.6258 -86.4861 326° Northwest 442 509 34,000 60 Climbing Atlanta Center
03:11PM 33.7306 -86.5717 326° Northwest 442 509 34,000  Level Atlanta Center
03:12PM 33.8311 -86.6544 326° Northwest 442 509 34,000  Level Atlanta Center
03:14PM 33.9939 -86.7872 326° Northwest 446 513 34,000  Level Memphis Center
03:15PM 34.0967 -86.8706 326° Northwest 446 513 34,000  Level Memphis Center
03:16PM 34.1886 -86.9497 325° Northwest 458 527 34,000  Level Memphis Center
03:17PM 34.2931 -87.0361 326° Northwest 451 519 34,000  Level Memphis Center
03:18PM 34.3933 -87.1203 325° Northwest 443 510 34,000  Level Memphis Center
03:19PM 34.4936 -87.1997 327° Northwest 437 503 34,000  Level Memphis Center
03:20PM 34.5936 -87.2867 324° Northwest 442 509 34,000  Level Memphis Center
03:21PM 34.7067 -87.3786 326° Northwest 437 503 34,000  Level Memphis Center
03:22PM 34.8067 -87.4636 325° Northwest 437 503 34,000  Level Memphis Center
03:23PM 34.9067 -87.5464 326° Northwest 442 509 34,000  Level Memphis Center
03:24PM 35.0086 -87.6342 325° Northwest 442 509 34,000  Level Memphis Center
03:25PM 35.1128 -87.7222 325° Northwest 442 509 34,000  Level Memphis Center
03:26PM 35.2083 -87.7981 327° Northwest 456 525 34,000  Level Memphis Center
03:27PM 35.3103 -87.8864 325° Northwest 456 525 34,000  Level Memphis Center
03:28PM 35.4119 -87.9778 324° Northwest 456 525 34,000  Level Memphis Center
03:29PM 35.5158 -88.0664 325° Northwest 456 525 34,000  Level Memphis Center
03:30PM 35.6197 -88.1478 328° Northwest 457 526 34,000  Level Memphis Center
03:31PM 35.7233 -88.2372 325° Northwest 450 518 34,000  Level Memphis Center
03:32PM 35.8250 -88.3267 325° Northwest 450 518 34,000  Level Memphis Center
03:33PM 35.9264 -88.4164 324° Northwest 450 518 34,000  Level Memphis Center
03:34PM 36.0258 -88.5039 325° Northwest 455 524 34,000  Level Memphis Center
03:35PM 36.1314 -88.5942 325° Northwest 455 524 34,000  Level Memphis Center
03:36PM 36.2306 -88.6794 325° Northwest 455 524 34,000  Level Memphis Center
03:37PM 36.3361 -88.7725 325° Northwest 455 524 34,000  Level Memphis Center
03:38PM 36.4372 -88.8633 324° Northwest 455 524 34,000  Level Memphis Center
03:39PM 36.5403 -88.9519 325° Northwest 455 524 34,000  Level Memphis Center
03:40PM 36.6394 -89.0433 324° Northwest 455 524 34,000  Level Memphis Center
03:41PM 36.7425 -89.1347 325° Northwest 455 524 34,000  Level Memphis Center
03:42PM 36.8411 -89.2239 324° Northwest 455 524 34,000 -1,080 Level Memphis Center
03:44PM 37.0978 -89.4575 324° Northwest 448 516 30,400 -2,100 Descending Kansas City Center
03:45PM 37.2019 -89.5522 324° Northwest 457 526 26,700 -2,160 Descending Kansas City Center
03:46PM 37.3167 -89.6256 333° Northwest 461 531 26,000 -360 Descending Kansas City Center
03:47PM 37.4364 -89.6872 338° Northwest 463 533 26,000 -360 Level Kansas City Center
03:48PM 37.5553 -89.7536 336° Northwest 466 536 25,300 -780 Descending Kansas City Center
03:49PM 37.6808 -89.8211 337° Northwest 461 531 24,500 -780 Descending Kansas City Center
03:50PM 37.7964 -89.8861 336° Northwest 457 526 23,700 -1,800 Descending Kansas City Center
03:51PM 37.9272 -89.9578 337° Northwest 445 512 20,800 -3,000 Descending Kansas City Center
03:52PM 38.0361 -90.0167 337° Northwest 429 494 17,600 -2,820 Descending Kansas City Center
03:53PM 38.1472 -90.0794 336° Northwest 417 480 15,000 -1,260 Descending Kansas City Center
03:54PM 38.2506 -90.1358 337° Northwest 408 470 15,000  Level Kansas City Center
03:55PM 38.3539 -90.1942 336° Northwest 407 468 15,000 -60 Level Kansas City Center
03:57PM 38.4631 -90.2561 336° Northwest 410 472 14,900 -540 Descending Kansas City Center
03:58PM 38.5592 -90.3100 336° Northwest 388 447 13,900 -1,680 Descending Kansas City Center
03:59PM 38.6433 -90.3678 332° Northwest 370 426 11,400 -2,340 Descending Kansas City Center
03:59PM 38.6667 -90.4167 301° West 351 404 10,800 -1,020 Descending Gateway (St. Louis) TRACON
04:00PM 38.6894 -90.4747 297° West 346 398 10,400 -900 Descending Kansas City Center
04:01PM 38.7294 -90.5719 298° West 286 329 9,300 -1,740 Descending Kansas City Center
04:02PM 38.7603 -90.6386 301° West 232 267 6,900 -2,100 Descending Kansas City Center
04:03PM 38.8064 -90.6911 318° Northwest 226 260 5,000 -1,080 Descending Kansas City Center
04:04PM 38.8464 -90.6639 28° Northeast 200 230 4,700 -780 Descending Kansas City Center
04:05PM 38.8494 -90.6000 86° East 187 215 3,500 -600 Descending Kansas City Center
04:06PM 38.8381 -90.5419 104° East 174 200 3,500 -420 Level Kansas City Center
04:07PM 38.8119 -90.4886 122° Southeast 177 204 2,700 -900 Descending Kansas City Center
04:08PM 38.7825 -90.4289 122° Southeast 170 196 1,700 -900 Descending Kansas City Center
04:09PM 38.7611 -90.3853 122° Southeast 156 180 900 -600 Descending Kansas City Center
04:10PM 38.7422 -90.3456 121° Southeast 151 174 500 -420 Descending Kansas City Center